sensor_id;sensor_type;location;lat;lon;timestamp;P1;durP1;ratioP1;P2;durP2;ratioP2
41885;SDS011;27567;43.084;25.616;2023-08-08T00:02:19;3.80;;;1.35;;
41885;SDS011;27567;43.084;25.616;2023-08-08T00:05:03;2.20;;;1.45;;
41885;SDS011;27567;43.084;25.616;2023-08-08T00:07:47;4.38;;;1.70;;
41885;SDS011;27567;43.084;25.616;2023-08-08T00:10:31;2.63;;;1.65;;
41885;SDS011;27567;43.084;25.616;2023-08-08T00:13:15;2.08;;;1.70;;
41885;SDS011;27567;43.084;25.616;2023-08-08T00:15:59;1.70;;;1.50;;
41885;SDS011;27567;43.084;25.616;2023-08-08T00:18:43;4.00;;;1.77;;
41885;SDS011;27567;43.084;25.616;2023-08-08T00:21:27;5.25;;;1.80;;
41885;SDS011;27567;43.084;25.616;2023-08-08T00:24:11;4.72;;;1.88;;
41885;SDS011;27567;43.084;25.616;2023-08-08T00:26:55;2.63;;;1.90;;
41885;SDS011;27567;43.084;25.616;2023-08-08T00:29:39;2.47;;;1.80;;
41885;SDS011;27567;43.084;25.616;2023-08-08T00:32:23;2.10;;;1.40;;
41885;SDS011;27567;43.084;25.616;2023-08-08T00:35:07;1.88;;;1.65;;
41885;SDS011;27567;43.084;25.616;2023-08-08T00:37:52;2.65;;;1.85;;
41885;SDS011;27567;43.084;25.616;2023-08-08T00:40:36;1.98;;;1.77;;
41885;SDS011;27567;43.084;25.616;2023-08-08T00:43:20;1.98;;;1.70;;
41885;SDS011;27567;43.084;25.616;2023-08-08T00:46:04;2.92;;;1.70;;
41885;SDS011;27567;43.084;25.616;2023-08-08T00:48:49;2.17;;;1.98;;
41885;SDS011;27567;43.084;25.616;2023-08-08T00:51:35;2.10;;;1.90;;
41885;SDS011;27567;43.084;25.616;2023-08-08T00:54:19;3.33;;;2.20;;
41885;SDS011;27567;43.084;25.616;2023-08-08T00:57:05;3.03;;;1.98;;
41885;SDS011;27567;43.084;25.616;2023-08-08T00:59:49;3.65;;;2.15;;
41885;SDS011;27567;43.084;25.616;2023-08-08T01:02:33;3.08;;;2.00;;
41885;SDS011;27567;43.084;25.616;2023-08-08T01:05:17;4.68;;;1.90;;
41885;SDS011;27567;43.084;25.616;2023-08-08T01:08:05;5.45;;;2.50;;
41885;SDS011;27567;43.084;25.616;2023-08-08T01:10:50;2.80;;;2.00;;
41885;SDS011;27567;43.084;25.616;2023-08-08T01:13:36;2.65;;;2.15;;
41885;SDS011;27567;43.084;25.616;2023-08-08T01:16:22;3.10;;;2.28;;
41885;SDS011;27567;43.084;25.616;2023-08-08T01:19:07;3.80;;;2.63;;
41885;SDS011;27567;43.084;25.616;2023-08-08T01:21:57;2.45;;;1.90;;
41885;SDS011;27567;43.084;25.616;2023-08-08T01:24:46;3.35;;;2.22;;
41885;SDS011;27567;43.084;25.616;2023-08-08T01:27:31;2.60;;;2.15;;
41885;SDS011;27567;43.084;25.616;2023-08-08T01:30:15;2.85;;;2.05;;
41885;SDS011;27567;43.084;25.616;2023-08-08T01:32:59;2.85;;;2.17;;
41885;SDS011;27567;43.084;25.616;2023-08-08T01:35:47;2.58;;;2.10;;
41885;SDS011;27567;43.084;25.616;2023-08-08T01:38:37;2.08;;;1.83;;
41885;SDS011;27567;43.084;25.616;2023-08-08T01:41:24;2.13;;;1.77;;
41885;SDS011;27567;43.084;25.616;2023-08-08T01:44:09;2.55;;;1.85;;
41885;SDS011;27567;43.084;25.616;2023-08-08T01:46:54;3.20;;;2.20;;
41885;SDS011;27567;43.084;25.616;2023-08-08T01:49:39;2.72;;;2.17;;
41885;SDS011;27567;43.084;25.616;2023-08-08T01:52:23;4.63;;;2.65;;
41885;SDS011;27567;43.084;25.616;2023-08-08T01:55:07;3.17;;;2.47;;
41885;SDS011;27567;43.084;25.616;2023-08-08T01:57:51;4.38;;;2.50;;
41885;SDS011;27567;43.084;25.616;2023-08-08T02:00:36;6.63;;;2.90;;
41885;SDS011;27567;43.084;25.616;2023-08-08T02:03:20;3.55;;;2.33;;
41885;SDS011;27567;43.084;25.616;2023-08-08T02:06:04;3.80;;;2.50;;
41885;SDS011;27567;43.084;25.616;2023-08-08T02:08:48;4.20;;;2.20;;
41885;SDS011;27567;43.084;25.616;2023-08-08T02:11:32;2.80;;;2.50;;
41885;SDS011;27567;43.084;25.616;2023-08-08T02:14:16;4.60;;;2.95;;
41885;SDS011;27567;43.084;25.616;2023-08-08T02:17:00;3.50;;;2.53;;
41885;SDS011;27567;43.084;25.616;2023-08-08T02:19:44;4.65;;;3.00;;
41885;SDS011;27567;43.084;25.616;2023-08-08T02:22:28;3.50;;;3.10;;
41885;SDS011;27567;43.084;25.616;2023-08-08T02:25:12;3.60;;;2.70;;
41885;SDS011;27567;43.084;25.616;2023-08-08T02:27:56;4.20;;;3.40;;
41885;SDS011;27567;43.084;25.616;2023-08-08T02:30:40;4.97;;;3.50;;
41885;SDS011;27567;43.084;25.616;2023-08-08T02:33:25;3.10;;;2.72;;
41885;SDS011;27567;43.084;25.616;2023-08-08T02:36:08;4.32;;;2.90;;
41885;SDS011;27567;43.084;25.616;2023-08-08T02:38:52;5.05;;;3.25;;
41885;SDS011;27567;43.084;25.616;2023-08-08T02:41:37;3.80;;;2.67;;
41885;SDS011;27567;43.084;25.616;2023-08-08T02:44:21;4.30;;;3.10;;
41885;SDS011;27567;43.084;25.616;2023-08-08T02:47:06;4.60;;;2.83;;
41885;SDS011;27567;43.084;25.616;2023-08-08T02:49:50;4.85;;;2.33;;
41885;SDS011;27567;43.084;25.616;2023-08-08T02:52:34;6.63;;;3.20;;
41885;SDS011;27567;43.084;25.616;2023-08-08T02:55:18;4.10;;;2.97;;
41885;SDS011;27567;43.084;25.616;2023-08-08T02:58:02;5.60;;;3.33;;
41885;SDS011;27567;43.084;25.616;2023-08-08T03:00:46;6.90;;;2.67;;
41885;SDS011;27567;43.084;25.616;2023-08-08T03:03:30;3.13;;;2.60;;
41885;SDS011;27567;43.084;25.616;2023-08-08T03:06:14;5.63;;;4.07;;
41885;SDS011;27567;43.084;25.616;2023-08-08T03:08:58;3.92;;;3.00;;
41885;SDS011;27567;43.084;25.616;2023-08-08T03:11:42;3.70;;;3.00;;
41885;SDS011;27567;43.084;25.616;2023-08-08T03:14:26;6.53;;;3.10;;
41885;SDS011;27567;43.084;25.616;2023-08-08T03:17:10;3.42;;;2.95;;
41885;SDS011;27567;43.084;25.616;2023-08-08T03:19:53;3.90;;;2.97;;
41885;SDS011;27567;43.084;25.616;2023-08-08T03:22:38;3.83;;;3.17;;
41885;SDS011;27567;43.084;25.616;2023-08-08T03:25:22;4.07;;;3.33;;
41885;SDS011;27567;43.084;25.616;2023-08-08T03:28:06;3.72;;;3.03;;
41885;SDS011;27567;43.084;25.616;2023-08-08T03:30:50;4.15;;;3.40;;
41885;SDS011;27567;43.084;25.616;2023-08-08T03:33:34;4.93;;;3.70;;
41885;SDS011;27567;43.084;25.616;2023-08-08T03:36:18;5.25;;;3.58;;
41885;SDS011;27567;43.084;25.616;2023-08-08T03:39:02;4.68;;;4.00;;
41885;SDS011;27567;43.084;25.616;2023-08-08T03:41:47;8.88;;;4.40;;
41885;SDS011;27567;43.084;25.616;2023-08-08T03:44:31;5.60;;;4.40;;
41885;SDS011;27567;43.084;25.616;2023-08-08T03:47:14;5.43;;;4.38;;
41885;SDS011;27567;43.084;25.616;2023-08-08T03:49:59;6.72;;;4.78;;
41885;SDS011;27567;43.084;25.616;2023-08-08T03:52:43;5.32;;;4.28;;
41885;SDS011;27567;43.084;25.616;2023-08-08T03:55:27;7.18;;;3.88;;
41885;SDS011;27567;43.084;25.616;2023-08-08T03:58:11;5.47;;;3.92;;
41885;SDS011;27567;43.084;25.616;2023-08-08T04:00:55;5.20;;;4.18;;
41885;SDS011;27567;43.084;25.616;2023-08-08T04:03:40;5.53;;;4.22;;
41885;SDS011;27567;43.084;25.616;2023-08-08T04:06:24;6.68;;;4.40;;
41885;SDS011;27567;43.084;25.616;2023-08-08T04:09:08;5.65;;;4.47;;
41885;SDS011;27567;43.084;25.616;2023-08-08T04:11:52;5.18;;;3.85;;
41885;SDS011;27567;43.084;25.616;2023-08-08T04:14:36;6.00;;;4.35;;
41885;SDS011;27567;43.084;25.616;2023-08-08T04:17:20;6.68;;;4.10;;
41885;SDS011;27567;43.084;25.616;2023-08-08T04:20:04;6.38;;;4.47;;
41885;SDS011;27567;43.084;25.616;2023-08-08T04:22:50;5.13;;;3.80;;
41885;SDS011;27567;43.084;25.616;2023-08-08T04:25:34;6.45;;;4.75;;
41885;SDS011;27567;43.084;25.616;2023-08-08T04:28:18;6.45;;;4.38;;
41885;SDS011;27567;43.084;25.616;2023-08-08T04:31:02;6.18;;;3.35;;
41885;SDS011;27567;43.084;25.616;2023-08-08T04:33:46;6.03;;;3.58;;
41885;SDS011;27567;43.084;25.616;2023-08-08T04:36:30;6.53;;;3.47;;
41885;SDS011;27567;43.084;25.616;2023-08-08T04:39:14;5.45;;;3.42;;
41885;SDS011;27567;43.084;25.616;2023-08-08T04:41:58;4.95;;;3.38;;
41885;SDS011;27567;43.084;25.616;2023-08-08T04:44:42;4.78;;;3.70;;
41885;SDS011;27567;43.084;25.616;2023-08-08T04:47:26;5.00;;;3.45;;
41885;SDS011;27567;43.084;25.616;2023-08-08T04:50:10;4.20;;;3.17;;
41885;SDS011;27567;43.084;25.616;2023-08-08T04:52:54;4.47;;;2.97;;
41885;SDS011;27567;43.084;25.616;2023-08-08T04:55:38;5.10;;;3.22;;
41885;SDS011;27567;43.084;25.616;2023-08-08T04:58:23;5.10;;;2.90;;
41885;SDS011;27567;43.084;25.616;2023-08-08T05:01:07;0.93;;;0.85;;
41885;SDS011;27567;43.084;25.616;2023-08-08T05:03:52;0.15;;;0.15;;
41885;SDS011;27567;43.084;25.616;2023-08-08T05:06:36;1.63;;;1.52;;
41885;SDS011;27567;43.084;25.616;2023-08-08T05:09:20;0.55;;;0.55;;
41885;SDS011;27567;43.084;25.616;2023-08-08T05:12:04;0.10;;;0.10;;
41885;SDS011;27567;43.084;25.616;2023-08-08T05:14:48;0.15;;;0.10;;
41885;SDS011;27567;43.084;25.616;2023-08-08T05:17:38;0.40;;;0.38;;
41885;SDS011;27567;43.084;25.616;2023-08-08T05:20:22;0.00;;;0.00;;
41885;SDS011;27567;43.084;25.616;2023-08-08T05:23:06;1.20;;;1.10;;
41885;SDS011;27567;43.084;25.616;2023-08-08T05:25:50;0.25;;;0.25;;
41885;SDS011;27567;43.084;25.616;2023-08-08T05:28:34;0.22;;;0.22;;
41885;SDS011;27567;43.084;25.616;2023-08-08T05:31:19;1.60;;;1.42;;
41885;SDS011;27567;43.084;25.616;2023-08-08T05:34:03;0.20;;;0.20;;
41885;SDS011;27567;43.084;25.616;2023-08-08T05:36:47;0.20;;;0.20;;
41885;SDS011;27567;43.084;25.616;2023-08-08T05:39:31;0.00;;;0.00;;
41885;SDS011;27567;43.084;25.616;2023-08-08T05:42:15;0.20;;;0.20;;
41885;SDS011;27567;43.084;25.616;2023-08-08T05:44:59;0.20;;;0.20;;
41885;SDS011;27567;43.084;25.616;2023-08-08T05:47:43;0.47;;;0.47;;
41885;SDS011;27567;43.084;25.616;2023-08-08T05:50:27;0.30;;;0.30;;
41885;SDS011;27567;43.084;25.616;2023-08-08T05:53:11;1.58;;;0.52;;
41885;SDS011;27567;43.084;25.616;2023-08-08T05:55:55;0.20;;;0.20;;
41885;SDS011;27567;43.084;25.616;2023-08-08T05:58:39;1.25;;;0.52;;
41885;SDS011;27567;43.084;25.616;2023-08-08T06:01:23;0.00;;;0.00;;
41885;SDS011;27567;43.084;25.616;2023-08-08T06:04:07;2.63;;;0.55;;
41885;SDS011;27567;43.084;25.616;2023-08-08T06:06:51;0.63;;;0.63;;
41885;SDS011;27567;43.084;25.616;2023-08-08T06:09:36;0.65;;;0.47;;
41885;SDS011;27567;43.084;25.616;2023-08-08T06:12:21;1.27;;;0.75;;
41885;SDS011;27567;43.084;25.616;2023-08-08T06:15:05;0.30;;;0.30;;
41885;SDS011;27567;43.084;25.616;2023-08-08T06:17:49;0.17;;;0.17;;
41885;SDS011;27567;43.084;25.616;2023-08-08T06:20:33;0.13;;;0.13;;
41885;SDS011;27567;43.084;25.616;2023-08-08T06:23:17;1.40;;;1.27;;
41885;SDS011;27567;43.084;25.616;2023-08-08T06:26:01;9.25;;;2.05;;
41885;SDS011;27567;43.084;25.616;2023-08-08T06:28:45;0.52;;;0.30;;
41885;SDS011;27567;43.084;25.616;2023-08-08T06:31:29;0.30;;;0.30;;
41885;SDS011;27567;43.084;25.616;2023-08-08T06:34:13;0.55;;;0.43;;
41885;SDS011;27567;43.084;25.616;2023-08-08T06:36:57;1.13;;;0.90;;
41885;SDS011;27567;43.084;25.616;2023-08-08T06:39:41;0.32;;;0.32;;
41885;SDS011;27567;43.084;25.616;2023-08-08T06:42:25;0.30;;;0.30;;
41885;SDS011;27567;43.084;25.616;2023-08-08T06:45:09;0.73;;;0.73;;
41885;SDS011;27567;43.084;25.616;2023-08-08T06:47:53;1.50;;;0.52;;
41885;SDS011;27567;43.084;25.616;2023-08-08T06:50:37;0.82;;;0.82;;
41885;SDS011;27567;43.084;25.616;2023-08-08T06:53:21;1.48;;;1.23;;
41885;SDS011;27567;43.084;25.616;2023-08-08T06:56:06;0.95;;;0.90;;
41885;SDS011;27567;43.084;25.616;2023-08-08T06:58:51;0.82;;;0.82;;
41885;SDS011;27567;43.084;25.616;2023-08-08T07:01:35;1.17;;;0.93;;
41885;SDS011;27567;43.084;25.616;2023-08-08T07:04:19;0.20;;;0.20;;
41885;SDS011;27567;43.084;25.616;2023-08-08T07:07:04;0.40;;;0.40;;
41885;SDS011;27567;43.084;25.616;2023-08-08T07:09:48;0.25;;;0.25;;
41885;SDS011;27567;43.084;25.616;2023-08-08T07:12:32;0.80;;;0.63;;
41885;SDS011;27567;43.084;25.616;2023-08-08T07:15:16;0.50;;;0.50;;
41885;SDS011;27567;43.084;25.616;2023-08-08T07:18:01;0.10;;;0.10;;
41885;SDS011;27567;43.084;25.616;2023-08-08T07:20:45;0.20;;;0.20;;
41885;SDS011;27567;43.084;25.616;2023-08-08T07:23:29;0.08;;;0.08;;
41885;SDS011;27567;43.084;25.616;2023-08-08T07:26:13;0.52;;;0.52;;
41885;SDS011;27567;43.084;25.616;2023-08-08T07:28:58;6.30;;;4.78;;
41885;SDS011;27567;43.084;25.616;2023-08-08T07:31:41;0.65;;;0.65;;
41885;SDS011;27567;43.084;25.616;2023-08-08T07:34:25;6.97;;;2.55;;
41885;SDS011;27567;43.084;25.616;2023-08-08T07:37:10;9.57;;;7.45;;
41885;SDS011;27567;43.084;25.616;2023-08-08T07:39:55;3.17;;;0.35;;
41885;SDS011;27567;43.084;25.616;2023-08-08T07:42:39;0.50;;;0.50;;
41885;SDS011;27567;43.084;25.616;2023-08-08T07:45:23;0.80;;;0.55;;
41885;SDS011;27567;43.084;25.616;2023-08-08T07:48:07;57.70;;;10.75;;
41885;SDS011;27567;43.084;25.616;2023-08-08T07:50:51;1.73;;;1.25;;
41885;SDS011;27567;43.084;25.616;2023-08-08T07:53:35;2.92;;;0.85;;
41885;SDS011;27567;43.084;25.616;2023-08-08T07:56:19;1.85;;;1.27;;
41885;SDS011;27567;43.084;25.616;2023-08-08T07:59:03;0.47;;;0.47;;
41885;SDS011;27567;43.084;25.616;2023-08-08T08:01:47;0.17;;;0.17;;
41885;SDS011;27567;43.084;25.616;2023-08-08T08:04:31;0.30;;;0.30;;
41885;SDS011;27567;43.084;25.616;2023-08-08T08:07:15;1.23;;;0.55;;
41885;SDS011;27567;43.084;25.616;2023-08-08T08:09:59;0.20;;;0.20;;
41885;SDS011;27567;43.084;25.616;2023-08-08T08:12:44;0.10;;;0.10;;
41885;SDS011;27567;43.084;25.616;2023-08-08T08:15:28;0.03;;;0.03;;
41885;SDS011;27567;43.084;25.616;2023-08-08T08:18:12;0.20;;;0.20;;
41885;SDS011;27567;43.084;25.616;2023-08-08T08:20:57;1.02;;;0.52;;
41885;SDS011;27567;43.084;25.616;2023-08-08T08:23:41;0.40;;;0.40;;
41885;SDS011;27567;43.084;25.616;2023-08-08T08:26:25;0.43;;;0.43;;
41885;SDS011;27567;43.084;25.616;2023-08-08T08:29:09;0.13;;;0.13;;
41885;SDS011;27567;43.084;25.616;2023-08-08T08:31:53;0.10;;;0.10;;
41885;SDS011;27567;43.084;25.616;2023-08-08T08:34:37;0.10;;;0.10;;
41885;SDS011;27567;43.084;25.616;2023-08-08T08:37:21;0.40;;;0.40;;
41885;SDS011;27567;43.084;25.616;2023-08-08T08:40:05;0.32;;;0.32;;
41885;SDS011;27567;43.084;25.616;2023-08-08T08:42:50;0.10;;;0.10;;
41885;SDS011;27567;43.084;25.616;2023-08-08T08:45:38;0.20;;;0.20;;
41885;SDS011;27567;43.084;25.616;2023-08-08T08:48:23;0.00;;;0.00;;
41885;SDS011;27567;43.084;25.616;2023-08-08T08:51:08;0.22;;;0.22;;
41885;SDS011;27567;43.084;25.616;2023-08-08T08:53:52;0.22;;;0.22;;
41885;SDS011;27567;43.084;25.616;2023-08-08T08:56:36;0.00;;;0.00;;
41885;SDS011;27567;43.084;25.616;2023-08-08T08:59:20;0.68;;;0.68;;
41885;SDS011;27567;43.084;25.616;2023-08-08T09:02:04;0.47;;;0.47;;
41885;SDS011;27567;43.084;25.616;2023-08-08T09:04:52;0.25;;;0.22;;
41885;SDS011;27567;43.084;25.616;2023-08-08T09:07:40;0.30;;;0.30;;
41885;SDS011;27567;43.084;25.616;2023-08-08T09:10:25;0.10;;;0.10;;
41885;SDS011;27567;43.084;25.616;2023-08-08T09:13:11;0.00;;;0.00;;
41885;SDS011;27567;43.084;25.616;2023-08-08T09:15:55;0.05;;;0.05;;
41885;SDS011;27567;43.084;25.616;2023-08-08T09:18:39;0.10;;;0.10;;
41885;SDS011;27567;43.084;25.616;2023-08-08T09:21:26;4.85;;;0.35;;
41885;SDS011;27567;43.084;25.616;2023-08-08T09:24:11;0.45;;;0.40;;
41885;SDS011;27567;43.084;25.616;2023-08-08T09:26:55;0.00;;;0.00;;
41885;SDS011;27567;43.084;25.616;2023-08-08T09:29:40;0.10;;;0.10;;
41885;SDS011;27567;43.084;25.616;2023-08-08T09:32:28;0.10;;;0.10;;
41885;SDS011;27567;43.084;25.616;2023-08-08T09:35:16;0.70;;;0.70;;
41885;SDS011;27567;43.084;25.616;2023-08-08T09:38:00;2.33;;;0.90;;
41885;SDS011;27567;43.084;25.616;2023-08-08T09:40:44;2.38;;;0.90;;
41885;SDS011;27567;43.084;25.616;2023-08-08T09:43:28;3.40;;;1.42;;
41885;SDS011;27567;43.084;25.616;2023-08-08T09:46:13;1.63;;;0.93;;
41885;SDS011;27567;43.084;25.616;2023-08-08T09:48:59;1.92;;;0.88;;
41885;SDS011;27567;43.084;25.616;2023-08-08T09:51:44;0.70;;;0.70;;
41885;SDS011;27567;43.084;25.616;2023-08-08T09:54:29;10.35;;;2.30;;
41885;SDS011;27567;43.084;25.616;2023-08-08T09:57:15;3.15;;;0.80;;
41885;SDS011;27567;43.084;25.616;2023-08-08T10:00:01;3.33;;;0.70;;
41885;SDS011;27567;43.084;25.616;2023-08-08T10:02:48;2.65;;;0.90;;
41885;SDS011;27567;43.084;25.616;2023-08-08T10:05:33;11.77;;;5.90;;
41885;SDS011;27567;43.084;25.616;2023-08-08T10:08:17;24.83;;;11.00;;
41885;SDS011;27567;43.084;25.616;2023-08-08T10:11:02;30.92;;;13.30;;
41885;SDS011;27567;43.084;25.616;2023-08-08T10:13:52;1.15;;;0.60;;
41885;SDS011;27567;43.084;25.616;2023-08-08T10:16:37;0.90;;;0.70;;
41885;SDS011;27567;43.084;25.616;2023-08-08T10:19:21;2.92;;;1.23;;
41885;SDS011;27567;43.084;25.616;2023-08-08T10:22:07;1.02;;;0.65;;
41885;SDS011;27567;43.084;25.616;2023-08-08T10:24:52;0.68;;;0.68;;
41885;SDS011;27567;43.084;25.616;2023-08-08T10:27:37;0.63;;;0.60;;
41885;SDS011;27567;43.084;25.616;2023-08-08T10:30:22;1.02;;;0.80;;
41885;SDS011;27567;43.084;25.616;2023-08-08T10:33:07;1.73;;;1.00;;
41885;SDS011;27567;43.084;25.616;2023-08-08T10:36:07;2.25;;;0.60;;
41885;SDS011;27567;43.084;25.616;2023-08-08T10:38:51;1.90;;;0.70;;
41885;SDS011;27567;43.084;25.616;2023-08-08T10:41:43;2.72;;;0.57;;
41885;SDS011;27567;43.084;25.616;2023-08-08T10:44:28;1.33;;;0.50;;
41885;SDS011;27567;43.084;25.616;2023-08-08T10:47:13;1.90;;;0.50;;
41885;SDS011;27567;43.084;25.616;2023-08-08T10:50:07;0.85;;;0.70;;
41885;SDS011;27567;43.084;25.616;2023-08-08T10:52:53;0.98;;;0.50;;
41885;SDS011;27567;43.084;25.616;2023-08-08T10:55:39;3.30;;;0.80;;
41885;SDS011;27567;43.084;25.616;2023-08-08T10:58:23;0.57;;;0.57;;
41885;SDS011;27567;43.084;25.616;2023-08-08T11:01:19;3.38;;;0.60;;
41885;SDS011;27567;43.084;25.616;2023-08-08T11:04:08;1.63;;;0.90;;
41885;SDS011;27567;43.084;25.616;2023-08-08T11:06:54;2.80;;;0.77;;
41885;SDS011;27567;43.084;25.616;2023-08-08T11:09:38;3.35;;;0.98;;
41885;SDS011;27567;43.084;25.616;2023-08-08T11:12:23;1.27;;;0.50;;
41885;SDS011;27567;43.084;25.616;2023-08-08T11:15:09;3.42;;;1.27;;
41885;SDS011;27567;43.084;25.616;2023-08-08T11:17:56;0.63;;;0.52;;
41885;SDS011;27567;43.084;25.616;2023-08-08T11:20:41;0.70;;;0.70;;
41885;SDS011;27567;43.084;25.616;2023-08-08T11:23:26;2.15;;;0.80;;
41885;SDS011;27567;43.084;25.616;2023-08-08T11:26:10;0.70;;;0.55;;
41885;SDS011;27567;43.084;25.616;2023-08-08T11:28:54;2.95;;;0.88;;
41885;SDS011;27567;43.084;25.616;2023-08-08T11:31:38;2.15;;;0.70;;
41885;SDS011;27567;43.084;25.616;2023-08-08T11:34:22;0.80;;;0.68;;
41885;SDS011;27567;43.084;25.616;2023-08-08T11:37:06;2.97;;;0.40;;
41885;SDS011;27567;43.084;25.616;2023-08-08T11:39:52;5.15;;;1.05;;
41885;SDS011;27567;43.084;25.616;2023-08-08T11:43:08;1.02;;;0.50;;
41885;SDS011;27567;43.084;25.616;2023-08-08T11:45:55;2.15;;;0.60;;
41885;SDS011;27567;43.084;25.616;2023-08-08T11:48:39;0.73;;;0.60;;
41885;SDS011;27567;43.084;25.616;2023-08-08T11:51:23;0.85;;;0.40;;
41885;SDS011;27567;43.084;25.616;2023-08-08T11:54:18;0.73;;;0.50;;
41885;SDS011;27567;43.084;25.616;2023-08-08T11:57:03;5.25;;;0.80;;
41885;SDS011;27567;43.084;25.616;2023-08-08T11:59:52;2.13;;;0.80;;
41885;SDS011;27567;43.084;25.616;2023-08-08T12:02:37;1.52;;;1.17;;
41885;SDS011;27567;43.084;25.616;2023-08-08T12:05:21;0.85;;;0.80;;
41885;SDS011;27567;43.084;25.616;2023-08-08T12:08:08;0.70;;;0.70;;
41885;SDS011;27567;43.084;25.616;2023-08-08T12:10:54;1.45;;;0.70;;
41885;SDS011;27567;43.084;25.616;2023-08-08T12:13:46;1.25;;;0.82;;
41885;SDS011;27567;43.084;25.616;2023-08-08T12:16:39;1.25;;;0.60;;
41885;SDS011;27567;43.084;25.616;2023-08-08T12:19:24;0.88;;;0.80;;
41885;SDS011;27567;43.084;25.616;2023-08-08T12:22:09;0.82;;;0.68;;
41885;SDS011;27567;43.084;25.616;2023-08-08T12:24:53;0.43;;;0.43;;
41885;SDS011;27567;43.084;25.616;2023-08-08T12:27:38;0.57;;;0.52;;
41885;SDS011;27567;43.084;25.616;2023-08-08T12:30:22;0.90;;;0.75;;
41885;SDS011;27567;43.084;25.616;2023-08-08T12:33:07;0.90;;;0.52;;
41885;SDS011;27567;43.084;25.616;2023-08-08T12:39:13;0.63;;;0.50;;
41885;SDS011;27567;43.084;25.616;2023-08-08T12:41:57;0.80;;;0.70;;
41885;SDS011;27567;43.084;25.616;2023-08-08T12:44:44;1.02;;;0.50;;
41885;SDS011;27567;43.084;25.616;2023-08-08T12:47:29;0.40;;;0.40;;
41885;SDS011;27567;43.084;25.616;2023-08-08T12:50:12;0.50;;;0.50;;
41885;SDS011;27567;43.084;25.616;2023-08-08T12:52:56;2.78;;;0.52;;
41885;SDS011;27567;43.084;25.616;2023-08-08T12:55:43;1.10;;;0.60;;
41885;SDS011;27567;43.084;25.616;2023-08-08T12:58:27;0.80;;;0.40;;
41885;SDS011;27567;43.084;25.616;2023-08-08T13:01:11;0.57;;;0.50;;
41885;SDS011;27567;43.084;25.616;2023-08-08T13:03:55;1.27;;;0.50;;
41885;SDS011;27567;43.084;25.616;2023-08-08T13:06:39;0.60;;;0.40;;
41885;SDS011;27567;43.084;25.616;2023-08-08T13:09:23;0.40;;;0.40;;
41885;SDS011;27567;43.084;25.616;2023-08-08T13:12:08;2.38;;;0.82;;
41885;SDS011;27567;43.084;25.616;2023-08-08T13:14:52;1.23;;;0.50;;
41885;SDS011;27567;43.084;25.616;2023-08-08T13:17:36;1.05;;;0.40;;
41885;SDS011;27567;43.084;25.616;2023-08-08T13:20:21;2.85;;;0.82;;
41885;SDS011;27567;43.084;25.616;2023-08-08T13:23:06;0.73;;;0.50;;
41885;SDS011;27567;43.084;25.616;2023-08-08T13:25:50;0.75;;;0.40;;
41885;SDS011;27567;43.084;25.616;2023-08-08T13:28:34;1.58;;;0.52;;
41885;SDS011;27567;43.084;25.616;2023-08-08T13:31:18;0.90;;;0.57;;
41885;SDS011;27567;43.084;25.616;2023-08-08T13:34:02;0.38;;;0.38;;
41885;SDS011;27567;43.084;25.616;2023-08-08T13:36:47;3.10;;;0.57;;
41885;SDS011;27567;43.084;25.616;2023-08-08T13:39:31;2.22;;;0.35;;
41885;SDS011;27567;43.084;25.616;2023-08-08T13:42:15;1.95;;;0.50;;
41885;SDS011;27567;43.084;25.616;2023-08-08T13:44:59;0.80;;;0.60;;
41885;SDS011;27567;43.084;25.616;2023-08-08T13:47:43;0.35;;;0.35;;
41885;SDS011;27567;43.084;25.616;2023-08-08T13:50:27;1.27;;;0.60;;
41885;SDS011;27567;43.084;25.616;2023-08-08T13:53:12;1.45;;;0.50;;
41885;SDS011;27567;43.084;25.616;2023-08-08T13:55:56;0.55;;;0.50;;
41885;SDS011;27567;43.084;25.616;2023-08-08T13:58:39;0.80;;;0.40;;
41885;SDS011;27567;43.084;25.616;2023-08-08T14:01:24;0.40;;;0.40;;
41885;SDS011;27567;43.084;25.616;2023-08-08T14:04:08;1.27;;;0.40;;
41885;SDS011;27567;43.084;25.616;2023-08-08T14:06:52;0.45;;;0.30;;
41885;SDS011;27567;43.084;25.616;2023-08-08T14:09:36;1.75;;;0.60;;
41885;SDS011;27567;43.084;25.616;2023-08-08T14:12:20;0.75;;;0.35;;
41885;SDS011;27567;43.084;25.616;2023-08-08T14:15:05;1.52;;;0.60;;
41885;SDS011;27567;43.084;25.616;2023-08-08T14:17:49;0.45;;;0.45;;
41885;SDS011;27567;43.084;25.616;2023-08-08T14:20:33;1.00;;;0.57;;
41885;SDS011;27567;43.084;25.616;2023-08-08T14:23:18;0.50;;;0.50;;
41885;SDS011;27567;43.084;25.616;2023-08-08T14:26:02;0.32;;;0.30;;
41885;SDS011;27567;43.084;25.616;2023-08-08T14:28:46;1.13;;;0.50;;
41885;SDS011;27567;43.084;25.616;2023-08-08T14:31:29;2.15;;;0.50;;
41885;SDS011;27567;43.084;25.616;2023-08-08T14:34:14;0.35;;;0.30;;
41885;SDS011;27567;43.084;25.616;2023-08-08T14:36:59;1.80;;;0.90;;
41885;SDS011;27567;43.084;25.616;2023-08-08T14:39:44;3.70;;;0.60;;
41885;SDS011;27567;43.084;25.616;2023-08-08T14:42:28;2.30;;;0.60;;
41885;SDS011;27567;43.084;25.616;2023-08-08T14:45:12;0.95;;;0.50;;
41885;SDS011;27567;43.084;25.616;2023-08-08T14:47:56;1.15;;;0.60;;
41885;SDS011;27567;43.084;25.616;2023-08-08T14:50:40;2.03;;;0.57;;
41885;SDS011;27567;43.084;25.616;2023-08-08T14:53:24;0.50;;;0.50;;
41885;SDS011;27567;43.084;25.616;2023-08-08T14:56:08;0.90;;;0.45;;
41885;SDS011;27567;43.084;25.616;2023-08-08T14:58:53;0.50;;;0.43;;
41885;SDS011;27567;43.084;25.616;2023-08-08T15:01:37;2.03;;;0.40;;
41885;SDS011;27567;43.084;25.616;2023-08-08T15:04:21;1.05;;;0.80;;
41885;SDS011;27567;43.084;25.616;2023-08-08T15:07:05;4.95;;;0.88;;
41885;SDS011;27567;43.084;25.616;2023-08-08T15:09:49;0.70;;;0.47;;
41885;SDS011;27567;43.084;25.616;2023-08-08T15:12:33;0.68;;;0.40;;
41885;SDS011;27567;43.084;25.616;2023-08-08T15:15:18;3.03;;;0.40;;
41885;SDS011;27567;43.084;25.616;2023-08-08T15:18:06;1.40;;;0.50;;
41885;SDS011;27567;43.084;25.616;2023-08-08T15:20:51;1.00;;;0.60;;
41885;SDS011;27567;43.084;25.616;2023-08-08T15:23:35;0.50;;;0.50;;
41885;SDS011;27567;43.084;25.616;2023-08-08T15:26:19;0.60;;;0.50;;
41885;SDS011;27567;43.084;25.616;2023-08-08T15:29:05;0.55;;;0.40;;
41885;SDS011;27567;43.084;25.616;2023-08-08T15:31:50;0.43;;;0.43;;
41885;SDS011;27567;43.084;25.616;2023-08-08T15:34:34;1.42;;;0.52;;
41885;SDS011;27567;43.084;25.616;2023-08-08T15:37:19;2.33;;;0.57;;
41885;SDS011;27567;43.084;25.616;2023-08-08T15:40:06;0.70;;;0.60;;
41885;SDS011;27567;43.084;25.616;2023-08-08T15:42:51;1.67;;;0.60;;
41885;SDS011;27567;43.084;25.616;2023-08-08T15:45:36;0.70;;;0.57;;
41885;SDS011;27567;43.084;25.616;2023-08-08T15:48:20;0.52;;;0.50;;
41885;SDS011;27567;43.084;25.616;2023-08-08T15:51:04;0.80;;;0.40;;
41885;SDS011;27567;43.084;25.616;2023-08-08T15:53:49;0.95;;;0.40;;
41885;SDS011;27567;43.084;25.616;2023-08-08T15:56:33;1.65;;;0.63;;
41885;SDS011;27567;43.084;25.616;2023-08-08T15:59:17;1.50;;;0.55;;
41885;SDS011;27567;43.084;25.616;2023-08-08T16:02:02;5.18;;;0.50;;
41885;SDS011;27567;43.084;25.616;2023-08-08T16:04:45;2.88;;;0.77;;
41885;SDS011;27567;43.084;25.616;2023-08-08T16:07:32;0.98;;;0.73;;
41885;SDS011;27567;43.084;25.616;2023-08-08T16:10:16;1.55;;;0.60;;
41885;SDS011;27567;43.084;25.616;2023-08-08T16:13:00;1.38;;;0.85;;
41885;SDS011;27567;43.084;25.616;2023-08-08T16:15:45;0.93;;;0.40;;
41885;SDS011;27567;43.084;25.616;2023-08-08T16:18:30;5.53;;;0.40;;
41885;SDS011;27567;43.084;25.616;2023-08-08T16:21:17;0.40;;;0.40;;